createdAt,value
2018-07-11T00:01:50.010Z,18.75
2018-07-11T00:04:21.362Z,18.98
2018-07-11T00:06:53.283Z,18.99
2018-07-11T00:09:24.804Z,19.05
2018-07-11T00:11:55.754Z,18.94
2018-07-11T00:14:26.581Z,18.91
2018-07-11T00:17:03.275Z,18.99
2018-07-11T00:19:35.489Z,18.89
2018-07-11T00:22:07.002Z,18.96
2018-07-11T00:24:38.666Z,18.91
2018-07-11T00:27:09.684Z,18.77
2018-07-11T00:29:40.970Z,18.73
2018-07-11T00:32:12.311Z,18.71
2018-07-11T00:34:44.037Z,18.83
2018-07-11T00:37:15.295Z,18.97
2018-07-11T00:39:46.758Z,19.02
2018-07-11T00:42:18.268Z,18.68
2018-07-11T00:44:49.821Z,18.69
2018-07-11T00:47:20.643Z,18.65
2018-07-11T00:49:52.243Z,18.62
2018-07-11T00:52:23.797Z,18.74
2018-07-11T00:54:55.415Z,18.77
2018-07-11T00:57:26.555Z,18.46
2018-07-11T00:59:58.122Z,18.35
2018-07-11T01:02:29.147Z,18.10
2018-07-11T01:05:00.563Z,18.13
2018-07-11T01:07:32.025Z,18.36
2018-07-11T01:10:03.657Z,18.52
2018-07-11T01:12:35.352Z,18.51
2018-07-11T01:15:06.830Z,18.35
2018-07-11T01:17:43.729Z,18.18
2018-07-11T01:20:15.291Z,18.07
2018-07-11T01:22:46.528Z,18.26
2018-07-11T01:25:17.992Z,18.04
2018-07-11T01:27:49.459Z,18.17
2018-07-11T01:30:21.041Z,18.25
2018-07-11T01:32:52.234Z,18.20
2018-07-11T01:35:23.688Z,18.35
2018-07-11T01:37:54.650Z,18.26
2018-07-11T01:40:26.059Z,18.31
2018-07-11T01:42:56.548Z,18.54
2018-07-11T01:45:28.318Z,18.57
2018-07-11T01:47:59.274Z,18.39
2018-07-11T01:50:31.045Z,18.26
2018-07-11T01:53:02.781Z,18.21
2018-07-11T01:55:34.737Z,18.22
2018-07-11T01:58:06.620Z,18.24
2018-07-11T02:00:38.190Z,18.14
2018-07-11T02:03:10.072Z,18.06
2018-07-11T02:05:41.534Z,18.06
2018-07-11T02:08:12.464Z,17.94
2018-07-11T02:10:44.464Z,17.99
2018-07-11T02:13:15.453Z,18.05
2018-07-11T02:15:47.762Z,18.25
2018-07-11T02:18:21.680Z,18.98
2018-07-11T02:20:53.774Z,18.89
2018-07-11T02:23:25.021Z,18.71
2018-07-11T02:25:56.465Z,18.84
2018-07-11T02:28:28.082Z,18.81
2018-07-11T02:30:59.268Z,18.87
2018-07-11T02:33:30.380Z,18.92
2018-07-11T02:36:01.729Z,18.90
2018-07-11T02:38:33.157Z,18.85
2018-07-11T02:41:04.187Z,18.75
2018-07-11T02:43:36.090Z,18.54
2018-07-11T02:46:06.700Z,18.47
2018-07-11T02:48:38.638Z,18.42
2018-07-11T02:51:09.882Z,18.20
2018-07-11T02:53:41.421Z,18.13
2018-07-11T02:56:12.784Z,18.16
2018-07-11T02:58:44.750Z,18.18
2018-07-11T03:01:15.979Z,18.22
2018-07-11T03:03:47.608Z,18.16
2018-07-11T03:06:18.885Z,18.04
2018-07-11T03:08:49.880Z,17.94
2018-07-11T03:11:21.102Z,17.91
2018-07-11T03:13:52.706Z,17.78
2018-07-11T03:16:23.851Z,17.76
2018-07-11T03:18:55.697Z,17.85
2018-07-11T03:21:28.502Z,17.81
2018-07-11T03:24:00.498Z,17.77
2018-07-11T03:26:31.842Z,17.66
2018-07-11T03:29:03.271Z,17.71
2018-07-11T03:31:34.312Z,17.80
2018-07-11T03:34:05.632Z,17.72
2018-07-11T03:36:36.856Z,17.64
2018-07-11T03:39:08.709Z,17.66
2018-07-11T03:41:39.765Z,17.82
2018-07-11T03:44:11.179Z,18.10
2018-07-11T03:46:42.537Z,18.09
2018-07-11T03:49:13.130Z,18.16
2018-07-11T03:51:44.690Z,18.25
2018-07-11T03:54:16.334Z,18.28
2018-07-11T03:56:47.583Z,18.35
2018-07-11T03:59:19.240Z,18.40
2018-07-11T04:01:50.685Z,18.51
2018-07-11T04:04:21.865Z,18.67
2018-07-11T04:06:53.182Z,18.71
2018-07-11T04:09:24.290Z,18.75
2018-07-11T04:11:55.700Z,18.78
2018-07-11T04:14:27.033Z,18.87
2018-07-11T04:16:58.639Z,18.93
2018-07-11T04:19:31.032Z,18.99
2018-07-11T04:22:02.048Z,19.03
2018-07-11T04:24:32.726Z,19.13
2018-07-11T04:27:04.811Z,19.23
2018-07-11T04:29:36.051Z,19.34
2018-07-11T04:32:07.169Z,19.41
2018-07-11T04:34:38.706Z,19.58
2018-07-11T04:37:10.083Z,19.71
2018-07-11T04:39:41.791Z,19.85
2018-07-11T04:42:12.836Z,19.94
2018-07-11T04:44:43.945Z,19.99
2018-07-11T04:47:15.623Z,20.09
2018-07-11T04:49:47.719Z,20.11
2018-07-11T04:52:19.315Z,20.15
2018-07-11T04:54:50.932Z,20.23
2018-07-11T04:57:22.821Z,20.40
2018-07-11T04:59:54.087Z,20.58
2018-07-11T05:02:25.322Z,20.69
2018-07-11T05:04:56.449Z,21.02
2018-07-11T05:07:27.741Z,21.02
2018-07-11T05:09:59.337Z,21.01
2018-07-11T05:12:31.042Z,21.00
2018-07-11T05:15:02.595Z,21.22
2018-07-11T05:17:34.099Z,21.27
2018-07-11T05:20:05.255Z,21.33
2018-07-11T05:22:36.844Z,21.46
2018-07-11T05:25:08.190Z,21.66
2018-07-11T05:27:40.189Z,21.73
2018-07-11T05:30:11.641Z,21.82
2018-07-11T05:32:43.433Z,21.98
2018-07-11T05:35:14.490Z,22.00
2018-07-11T05:37:45.767Z,22.13
2018-07-11T05:40:16.873Z,22.20
2018-07-11T05:42:48.382Z,22.41
2018-07-11T05:45:19.468Z,22.66
2018-07-11T05:47:50.793Z,22.80
2018-07-11T05:50:22.007Z,22.87
2018-07-11T05:52:53.644Z,22.98
2018-07-11T05:55:25.067Z,23.14
2018-07-11T05:57:56.158Z,23.35
2018-07-11T06:00:27.999Z,23.56
2018-07-11T06:02:59.324Z,23.72
2018-07-11T06:05:29.957Z,23.49
2018-07-11T06:08:01.383Z,23.62
2018-07-11T06:10:32.621Z,23.61
2018-07-11T06:13:04.077Z,23.78
2018-07-11T06:15:35.022Z,24.06
2018-07-11T06:18:06.441Z,24.08
2018-07-11T06:20:37.688Z,24.15
2018-07-11T06:23:09.159Z,24.39
2018-07-11T06:25:40.776Z,24.40
2018-07-11T06:28:12.010Z,24.45
2018-07-11T06:30:43.768Z,24.55
2018-07-11T06:33:15.085Z,24.49
2018-07-11T06:35:46.342Z,24.70
2018-07-11T06:38:17.637Z,24.62
2018-07-11T06:40:48.930Z,24.84
2018-07-11T06:43:20.292Z,24.78
2018-07-11T06:45:52.173Z,24.76
2018-07-11T06:48:23.425Z,25.01
2018-07-11T06:50:54.590Z,25.16
2018-07-11T06:53:25.717Z,25.33
2018-07-11T06:55:57.003Z,25.59
2018-07-11T06:58:28.772Z,25.60
2018-07-11T07:01:02.436Z,25.48
2018-07-11T07:03:34.212Z,25.52
2018-07-11T07:06:06.072Z,25.52
2018-07-11T07:08:37.724Z,25.65
2018-07-11T07:11:10.231Z,25.87
2018-07-11T07:13:42.168Z,25.97
2018-07-11T07:16:13.270Z,26.10
2018-07-11T07:18:45.162Z,26.31
2018-07-11T07:21:17.801Z,26.22
2018-07-11T07:23:49.570Z,26.37
2018-07-11T07:26:20.425Z,26.51
2018-07-11T07:28:51.640Z,26.53
2018-07-11T07:31:22.146Z,26.38
2018-07-11T07:33:52.228Z,26.33
2018-07-11T07:36:23.312Z,26.56
2018-07-11T07:38:54.432Z,26.97
2018-07-11T07:41:25.550Z,26.67
2018-07-11T07:43:56.794Z,26.71
2018-07-11T07:49:27.137Z,27.08
2018-07-11T07:51:59.032Z,27.17
2018-07-11T07:54:31.504Z,27.56
2018-07-11T07:57:02.718Z,28.16
2018-07-11T07:59:34.440Z,27.95
2018-07-11T08:02:04.882Z,27.95
2018-07-11T08:04:35.965Z,27.73
2018-07-11T08:07:06.750Z,27.61
2018-07-11T08:09:46.189Z,27.85
2018-07-11T08:12:17.994Z,28.32
2018-07-11T08:14:49.666Z,28.50
2018-07-11T08:17:20.866Z,28.14
2018-07-11T08:19:51.394Z,28.36
2018-07-11T08:22:42.557Z,28.81
2018-07-11T08:25:24.354Z,29.19
2018-07-11T08:28:13.436Z,29.22
2018-07-11T08:30:55.647Z,29.35
2018-07-11T08:33:41.799Z,29.56
2018-07-11T08:36:24.401Z,29.87
2018-07-11T08:39:03.696Z,30.12
2018-07-11T08:42:16.191Z,29.99
2018-07-11T08:47:15.039Z,29.55
2018-07-11T08:50:01.109Z,29.71
2018-07-11T08:52:46.287Z,30.06
2018-07-11T08:55:27.485Z,30.18
2018-07-11T08:58:13.706Z,29.95
2018-07-11T09:00:57.078Z,30.13
2018-07-11T09:03:40.811Z,30.56
2018-07-11T09:07:06.398Z,30.49
2018-07-11T09:09:56.230Z,30.68
2018-07-11T09:12:43.907Z,30.45
2018-07-11T09:15:30.563Z,30.35
2018-07-11T09:18:12.952Z,30.43
2018-07-11T09:23:02.862Z,30.73
2018-07-11T09:25:34.155Z,30.92
2018-07-11T09:28:05.347Z,30.61
2018-07-11T09:30:37.017Z,30.78
2018-07-11T09:33:07.469Z,31.16
2018-07-11T09:35:39.080Z,31.51
2018-07-11T09:38:10.981Z,31.54
2018-07-11T09:40:41.491Z,31.85
2018-07-11T09:43:11.814Z,32.13
2018-07-11T09:45:43.267Z,32.31
2018-07-11T09:48:15.226Z,32.73
2018-07-11T09:50:48.250Z,32.23
2018-07-11T09:53:19.409Z,31.87
2018-07-11T09:55:51.678Z,32.79
2018-07-11T09:58:23.205Z,33.15
2018-07-11T10:00:59.785Z,32.17
2018-07-11T10:03:31.528Z,32.31
2018-07-11T10:06:03.106Z,32.76
2018-07-11T10:08:33.795Z,33.08
2018-07-11T10:11:04.981Z,33.13
2018-07-11T10:13:35.301Z,32.62
2018-07-11T10:16:05.950Z,32.46
2018-07-11T10:18:36.108Z,32.68
2018-07-11T10:21:06.396Z,33.04
2018-07-11T10:23:37.232Z,32.93
2018-07-11T10:26:07.836Z,32.53
2018-07-11T10:28:38.259Z,33.01
2018-07-11T10:31:08.448Z,33.26
2018-07-11T10:33:38.529Z,33.28
2018-07-11T10:36:09.143Z,33.25
2018-07-11T10:38:39.357Z,33.47
2018-07-11T10:41:09.757Z,34.06
2018-07-11T10:43:40.306Z,34.56
2018-07-11T10:46:11.700Z,34.71
2018-07-11T10:48:41.995Z,34.37
2018-07-11T10:51:12.556Z,34.23
2018-07-11T10:53:42.944Z,34.16
2018-07-11T10:56:13.798Z,33.72
2018-07-11T10:58:44.295Z,34.14
2018-07-11T11:01:14.640Z,33.69
2018-07-11T11:03:45.016Z,32.93
2018-07-11T11:06:16.382Z,32.39
2018-07-11T11:08:46.609Z,32.50
2018-07-11T11:11:17.277Z,32.71
2018-07-11T11:13:47.595Z,33.00
2018-07-11T11:16:18.037Z,33.70
2018-07-11T11:18:48.284Z,33.74
2018-07-11T11:21:18.803Z,33.99
2018-07-11T11:23:49.016Z,33.97
2018-07-11T11:26:19.357Z,33.62
2018-07-11T11:28:49.889Z,33.05
2018-07-11T11:31:20.124Z,33.22
2018-07-11T11:33:50.856Z,33.79
2018-07-11T11:36:22.694Z,34.44
2018-07-11T11:38:52.956Z,34.01
2018-07-11T11:41:23.132Z,33.30
2018-07-11T11:43:53.261Z,33.24
2018-07-11T11:46:23.492Z,33.99
2018-07-11T11:48:53.881Z,34.31
2018-07-11T11:51:24.485Z,34.85
2018-07-11T11:53:55.159Z,35.16
2018-07-11T11:56:25.675Z,35.35
2018-07-11T11:58:55.974Z,35.87
2018-07-11T12:01:27.306Z,35.90
2018-07-11T12:03:57.521Z,35.35
2018-07-11T12:06:27.955Z,35.48
2018-07-11T12:08:58.567Z,35.83
2018-07-11T12:11:28.760Z,35.67
2018-07-11T12:13:59.074Z,36.14
2018-07-11T12:16:29.758Z,35.60
2018-07-11T12:19:00.255Z,34.90
2018-07-11T12:21:30.679Z,34.75
2018-07-11T12:24:00.882Z,34.75
2018-07-11T12:26:31.280Z,34.67
2018-07-11T12:29:01.514Z,34.60
2018-07-11T12:31:31.629Z,35.02
2018-07-11T12:34:01.620Z,35.81
2018-07-11T12:36:32.204Z,35.74
2018-07-11T12:39:02.503Z,34.96
2018-07-11T12:41:32.852Z,35.11
2018-07-11T12:44:03.285Z,35.16
2018-07-11T12:46:33.447Z,36.34
2018-07-11T12:49:05.258Z,36.85
2018-07-11T12:51:35.925Z,35.89
2018-07-11T12:54:06.298Z,35.04
2018-07-11T12:56:36.612Z,35.00
2018-07-11T12:59:06.915Z,35.39
2018-07-11T13:01:37.508Z,35.70
2018-07-11T13:04:07.730Z,35.41
2018-07-11T13:06:38.832Z,35.23
2018-07-11T13:09:09.308Z,36.15
2018-07-11T13:11:39.498Z,36.52
2018-07-11T13:14:09.710Z,36.21
2018-07-11T13:16:40.121Z,36.32
2018-07-11T13:19:10.451Z,35.37
2018-07-11T13:21:40.876Z,35.46
2018-07-11T13:24:11.146Z,36.13
2018-07-11T13:26:41.710Z,36.43
2018-07-11T13:29:12.637Z,36.05
2018-07-11T13:31:42.911Z,35.30
2018-07-11T13:34:13.373Z,35.16
2018-07-11T13:36:44.429Z,34.71
2018-07-11T13:39:19.288Z,34.88
2018-07-11T13:41:50.201Z,35.57
2018-07-11T13:44:20.448Z,36.00
2018-07-11T13:46:50.586Z,36.27
2018-07-11T13:49:20.683Z,36.72
2018-07-11T13:51:51.215Z,37.19
2018-07-11T13:54:21.445Z,37.45
2018-07-11T13:56:52.120Z,37.72
2018-07-11T13:59:22.502Z,37.74
2018-07-11T14:01:52.843Z,37.21
2018-07-11T14:04:23.012Z,36.89
2018-07-11T14:06:53.446Z,36.38
2018-07-11T14:09:23.892Z,36.30
2018-07-11T14:11:54.308Z,36.77
2018-07-11T14:14:24.620Z,36.89
2018-07-11T14:16:54.782Z,36.19
2018-07-11T14:19:25.215Z,36.40
2018-07-11T14:21:56.321Z,37.05
2018-07-11T14:24:27.555Z,37.41
2018-07-11T14:26:58.627Z,37.25
2018-07-11T14:29:31.098Z,36.31
2018-07-11T14:32:01.937Z,36.72
2018-07-11T14:34:32.356Z,37.66
2018-07-11T14:37:04.228Z,38.05
2018-07-11T14:39:34.470Z,38.01
2018-07-11T14:42:04.906Z,36.38
2018-07-11T14:44:35.162Z,36.11
2018-07-11T14:47:08.747Z,36.36
2018-07-11T14:49:40.159Z,36.89
2018-07-11T14:52:10.320Z,36.41
2018-07-11T14:54:40.770Z,36.01
2018-07-11T14:57:11.137Z,36.06
2018-07-11T14:59:41.484Z,36.06
2018-07-11T15:02:11.865Z,36.48
2018-07-11T15:04:42.249Z,36.65
2018-07-11T15:07:12.551Z,37.32
2018-07-11T15:09:42.890Z,37.03
2018-07-11T15:12:13.156Z,36.45
2018-07-11T15:14:43.509Z,36.22
2018-07-11T15:17:14.032Z,35.36
2018-07-11T15:19:44.465Z,34.82
2018-07-11T15:22:14.882Z,34.82
2018-07-11T15:24:45.326Z,35.09
2018-07-11T15:27:15.545Z,34.82
2018-07-11T15:29:45.852Z,34.85
2018-07-11T15:32:16.176Z,34.43
2018-07-11T15:34:46.431Z,34.38
2018-07-11T15:37:16.878Z,34.37
2018-07-11T15:39:47.043Z,34.63
2018-07-11T15:42:17.430Z,34.54
2018-07-11T15:44:47.502Z,34.43
2018-07-11T15:47:21.527Z,34.24
2018-07-11T15:49:53.450Z,34.15
2018-07-11T15:52:25.211Z,34.37
2018-07-11T15:54:59.876Z,34.60
2018-07-11T15:57:37.309Z,34.90
2018-07-11T16:00:12.478Z,35.16
2018-07-11T16:02:44.358Z,35.68
2018-07-11T16:05:16.958Z,36.40
2018-07-11T16:07:48.720Z,36.45
2018-07-11T16:10:25.203Z,36.39
2018-07-11T16:12:55.584Z,36.23
2018-07-11T16:15:26.043Z,36.63
2018-07-11T16:17:56.274Z,36.07
2018-07-11T16:20:26.850Z,36.25
2018-07-11T16:22:57.500Z,36.54
2018-07-11T16:25:28.043Z,35.83
2018-07-11T16:27:58.579Z,35.88
2018-07-11T16:30:29.238Z,36.06
2018-07-11T16:32:59.900Z,36.13
2018-07-11T16:35:30.147Z,35.99
2018-07-11T16:38:00.553Z,35.75
2018-07-11T16:40:31.642Z,35.60
2018-07-11T16:43:02.687Z,35.57
2018-07-11T16:45:33.117Z,35.39
2018-07-11T16:48:04.448Z,35.29
2018-07-11T16:50:36.022Z,34.84
2018-07-11T16:53:07.385Z,34.96
2018-07-11T16:55:38.704Z,34.66
2018-07-11T16:58:10.682Z,34.64
2018-07-11T17:00:42.076Z,34.34
2018-07-11T17:03:14.504Z,34.07
2018-07-11T17:05:55.233Z,34.10
2018-07-11T17:08:35.338Z,33.94
2018-07-11T17:11:19.460Z,33.94
2018-07-11T17:14:02.283Z,33.68
2018-07-11T17:16:49.207Z,33.47
2018-07-11T17:19:29.383Z,32.70
2018-07-11T17:22:05.196Z,32.12
2018-07-11T17:24:41.006Z,31.69
2018-07-11T17:27:12.078Z,31.45
2018-07-11T17:29:44.207Z,31.33
2018-07-11T17:32:14.996Z,31.08
2018-07-11T17:34:46.389Z,31.06
2018-07-11T17:37:17.245Z,30.82
2018-07-11T17:39:52.543Z,30.46
2018-07-11T17:42:29.735Z,30.39
2018-07-11T17:45:22.890Z,29.93
2018-07-11T17:49:02.490Z,29.69
2018-07-11T17:52:12.393Z,29.51
2018-07-11T17:55:19.256Z,29.22
2018-07-11T17:57:56.956Z,29.03
2018-07-11T18:01:05.885Z,28.84
2018-07-11T18:03:44.093Z,28.73
2018-07-11T18:06:26.491Z,28.68
2018-07-11T18:09:08.622Z,28.55
2018-07-11T18:12:07.269Z,28.38
2018-07-11T18:15:50.254Z,28.25
2018-07-11T18:18:29.157Z,27.98
2018-07-11T18:21:19.670Z,27.84
2018-07-11T18:24:28.808Z,27.79
2018-07-11T18:27:11.515Z,27.99
2018-07-11T18:29:52.479Z,27.67
2018-07-11T18:34:36.309Z,27.52
2018-07-11T18:37:24.291Z,27.14
2018-07-11T18:39:58.963Z,27.10
2018-07-11T18:42:40.967Z,27.09
2018-07-11T18:45:50.369Z,27.02
2018-07-11T18:48:45.278Z,27.06
2018-07-11T18:51:19.231Z,27.08
2018-07-11T18:53:57.663Z,27.04
2018-07-11T18:56:36.572Z,26.92
2018-07-11T19:00:17.504Z,26.87
2018-07-11T19:02:55.399Z,26.59
2018-07-11T19:05:35.246Z,26.62
2018-07-11T19:08:11.262Z,26.58
2018-07-11T19:10:51.030Z,26.58
2018-07-11T19:13:40.191Z,26.38
2018-07-11T19:16:28.032Z,26.32
2018-07-11T19:19:14.161Z,26.25
2018-07-11T19:21:56.468Z,26.22
2018-07-11T19:25:37.421Z,26.32
2018-07-11T19:28:18.878Z,26.00
2018-07-11T19:31:00.908Z,25.74
2018-07-11T19:33:51.628Z,25.47
2018-07-11T19:36:32.976Z,25.37
2018-07-11T19:39:13.961Z,25.43
2018-07-11T19:41:52.050Z,25.28
2018-07-11T19:46:35.891Z,25.27
2018-07-11T19:49:49.726Z,25.01
2018-07-11T19:52:29.416Z,25.05
2018-07-11T19:57:07.540Z,25.10
2018-07-11T19:59:37.984Z,24.75
2018-07-11T20:02:08.332Z,24.82
2018-07-11T20:04:38.841Z,24.78
2018-07-11T20:07:09.456Z,24.76
2018-07-11T20:09:39.782Z,24.76
2018-07-11T20:12:10.167Z,24.69
2018-07-11T20:14:40.592Z,24.56
2018-07-11T20:17:10.911Z,24.66
2018-07-11T20:19:41.434Z,24.55
2018-07-11T20:22:11.769Z,24.34
2018-07-11T20:24:42.440Z,24.17
2018-07-11T20:27:12.840Z,24.11
2018-07-11T20:29:43.214Z,24.15
2018-07-11T20:32:13.723Z,24.18
2018-07-11T20:34:44.467Z,23.75
2018-07-11T20:37:14.877Z,23.66
2018-07-11T20:39:45.120Z,23.77
2018-07-11T20:42:15.442Z,23.89
2018-07-11T20:44:45.779Z,24.10
2018-07-11T20:47:16.110Z,24.25
2018-07-11T20:49:46.556Z,24.24
2018-07-11T20:52:16.903Z,23.95
2018-07-11T20:54:46.980Z,23.85
2018-07-11T20:57:17.986Z,23.71
2018-07-11T20:59:59.858Z,23.64
2018-07-11T21:02:41.710Z,23.61
2018-07-11T21:05:21.528Z,23.67
2018-07-11T21:10:44.802Z,23.86
2018-07-11T21:13:24.987Z,23.52
2018-07-11T21:16:10.099Z,23.48
2018-07-11T21:18:54.833Z,23.57
2018-07-11T21:21:26.238Z,23.35
2018-07-11T21:23:56.488Z,23.30
2018-07-11T21:26:27.774Z,23.28
2018-07-11T21:30:27.697Z,23.32
2018-07-11T21:32:59.232Z,23.24
2018-07-11T21:35:29.829Z,23.35
2018-07-11T21:38:01.149Z,23.31
2018-07-11T21:40:32.741Z,23.26
2018-07-11T21:43:04.131Z,23.30
2018-07-11T21:45:34.769Z,23.33
2018-07-11T21:48:05.472Z,23.30
2018-07-11T21:50:36.618Z,23.32
2018-07-11T21:53:07.278Z,23.23
2018-07-11T21:55:38.209Z,23.23
2018-07-11T21:58:09.438Z,23.24
2018-07-11T22:00:41.700Z,23.15
2018-07-11T22:03:12.902Z,23.07
2018-07-11T22:05:43.996Z,23.10
2018-07-11T22:08:15.649Z,23.10
2018-07-11T22:10:46.886Z,23.04
2018-07-11T22:13:17.699Z,22.83
2018-07-11T22:15:48.905Z,22.86
2018-07-11T22:18:30.390Z,22.84
2018-07-11T22:20:59.558Z,22.65
2018-07-11T22:23:29.079Z,22.61
2018-07-11T22:25:57.646Z,22.71
2018-07-11T22:28:26.614Z,22.59
2018-07-11T22:30:55.699Z,22.53
2018-07-11T22:33:24.967Z,22.67
2018-07-11T22:35:54.627Z,22.67
2018-07-11T22:38:23.904Z,22.71
2018-07-11T22:40:53.049Z,22.60
2018-07-11T22:43:21.567Z,22.53
2018-07-11T22:45:50.635Z,22.61
2018-07-11T22:48:20.365Z,22.57
2018-07-11T22:50:49.406Z,22.48
2018-07-11T22:53:19.004Z,22.26
2018-07-11T22:55:48.293Z,22.23
2018-07-11T22:58:18.269Z,22.28
2018-07-11T23:00:47.319Z,22.46
2018-07-11T23:03:16.468Z,22.54
2018-07-11T23:05:45.684Z,22.58
2018-07-11T23:08:14.363Z,22.47
2018-07-11T23:10:44.271Z,22.36
2018-07-11T23:13:12.803Z,22.28
2018-07-11T23:15:41.996Z,22.22
2018-07-11T23:18:11.233Z,22.14
2018-07-11T23:20:40.209Z,22.23
2018-07-11T23:23:09.617Z,22.15
2018-07-11T23:25:38.377Z,22.26
2018-07-11T23:28:07.590Z,22.10
2018-07-11T23:30:36.823Z,22.01
2018-07-11T23:33:06.014Z,21.75
2018-07-11T23:35:35.565Z,21.70
2018-07-11T23:38:05.187Z,21.74
2018-07-11T23:40:34.648Z,21.86
2018-07-11T23:43:03.619Z,21.85
2018-07-11T23:45:32.626Z,21.71
2018-07-11T23:48:02.332Z,21.53
2018-07-11T23:50:31.953Z,21.49
2018-07-11T23:53:01.183Z,21.20
2018-07-11T23:55:30.929Z,21.34
2018-07-11T23:58:00.129Z,21.45
